Time;durP1;ratioP1;P1;durP2;ratioP2;P2;SDS_P1;SDS_P2;PMS_P1;PMS_P2;Temp;Humidity;BMP_temperature;BMP_pressure;BME280_temperature;BME280_humidity;BME280_pressure;Samples;Min_cycle;Max_cycle;Signal;HPM_P1;HPM_P2
2023/06/08 00:01:58;;;;;;;10.52;7.38;;;17.60;84.90;;;;;;4994350;28;20022;-88
2023/06/08 00:04:30;;;;;;;9.38;7.10;;;17.60;84.40;;;;;;4993296;28;20065;-88
2023/06/08 00:06:56;;;;;;;10.07;7.63;;;17.60;84.40;;;;;;4993935;28;20518;-88
2023/06/08 00:09:21;;;;;;;9.25;6.45;;;17.60;84.40;;;;;;4994393;28;20035;-88
2023/06/08 00:11:48;;;;;;;9.80;6.75;;;17.60;84.40;;;;;;5010157;28;20026;-87
2023/06/08 00:14:13;;;;;;;8.95;6.43;;;17.60;84.30;;;;;;4993345;28;20025;-88
2023/06/08 00:16:39;;;;;;;9.13;6.63;;;17.60;84.40;;;;;;4996797;28;20028;-88
2023/06/08 00:19:07;;;;;;;9.10;6.30;;;17.60;84.30;;;;;;4983517;28;20481;-88
2023/06/08 00:21:33;;;;;;;9.00;6.63;;;17.60;84.30;;;;;;5018305;28;20030;-87
2023/06/08 00:23:59;;;;;;;9.02;6.30;;;17.60;84.30;;;;;;4989410;28;20416;-89
2023/06/08 00:26:26;;;;;;;8.10;5.70;;;17.60;84.30;;;;;;4983367;28;20034;-87
2023/06/08 00:28:51;;;;;;;8.88;6.18;;;17.60;84.30;;;;;;5004575;28;20030;-87
2023/06/08 00:31:17;;;;;;;9.70;6.55;;;17.60;84.30;;;;;;4975318;28;20421;-88
2023/06/08 00:33:42;;;;;;;7.63;5.47;;;17.60;84.30;;;;;;4975677;28;20023;-88
2023/06/08 00:36:08;;;;;;;8.93;6.53;;;17.50;84.20;;;;;;4993490;28;20030;-88
2023/06/08 00:38:34;;;;;;;8.57;6.20;;;17.60;84.30;;;;;;4994575;28;20056;-87
2023/06/08 00:41:00;;;;;;;8.35;6.35;;;17.60;84.30;;;;;;4993251;28;20026;-87
2023/06/08 00:43:26;;;;;;;8.75;6.60;;;17.60;84.30;;;;;;4993313;28;20022;-87
2023/06/08 00:45:52;;;;;;;8.45;6.43;;;17.60;84.20;;;;;;4992655;28;20030;-86
2023/06/08 00:48:18;;;;;;;9.00;5.88;;;17.60;84.20;;;;;;4992849;28;20026;-87
2023/06/08 00:50:46;;;;;;;9.18;6.25;;;17.60;84.10;;;;;;4994477;28;20469;-87
2023/06/08 00:53:12;;;;;;;9.57;6.45;;;17.60;84.00;;;;;;4994068;28;20022;-87
2023/06/08 00:55:38;;;;;;;9.75;6.38;;;17.70;84.10;;;;;;4998561;28;20030;-87
2023/06/08 00:58:04;;;;;;;8.70;6.38;;;17.70;83.90;;;;;;4983069;28;20522;-88
2023/06/08 01:00:30;;;;;;;8.23;6.15;;;17.70;83.90;;;;;;5002071;28;20019;-88
2023/06/08 01:02:56;;;;;;;8.30;6.18;;;17.70;83.90;;;;;;4999913;28;20168;-87
2023/06/08 01:05:23;;;;;;;8.77;6.13;;;17.70;83.80;;;;;;4998875;28;20062;-88
2023/06/08 01:08:10;;;;;;;9.77;6.53;;;17.70;83.70;;;;;;4999518;28;20034;-88
2023/06/08 01:10:48;;;;;;;8.98;6.88;;;17.70;83.70;;;;;;4982661;28;20061;-88
2023/06/08 01:13:16;;;;;;;10.10;6.97;;;17.70;83.80;;;;;;5001088;28;20046;-87
2023/06/08 01:15:57;;;;;;;9.02;6.80;;;17.70;83.90;;;;;;4999039;28;20034;-87
2023/06/08 01:18:27;;;;;;;12.00;7.75;;;17.60;83.90;;;;;;4999726;28;20026;-87
2023/06/08 01:21:24;;;;;;;10.00;7.87;;;17.70;84.10;;;;;;5008956;28;20033;-87
2023/06/08 01:24:03;;;;;;;11.05;7.93;;;17.60;84.10;;;;;;5009659;28;20415;-86
2023/06/08 01:26:31;;;;;;;10.15;7.80;;;17.60;84.20;;;;;;4998849;28;20572;-87
2023/06/08 01:28:57;;;;;;;10.27;7.80;;;17.60;84.20;;;;;;5008327;28;20088;-87
2023/06/08 01:31:22;;;;;;;10.75;7.60;;;17.60;84.20;;;;;;5020460;28;20026;-87
2023/06/08 01:33:49;;;;;;;10.52;7.70;;;17.60;84.20;;;;;;5016621;28;20030;-86
2023/06/08 01:36:26;;;;;;;10.25;7.38;;;17.60;84.20;;;;;;4999197;28;20023;-85
2023/06/08 01:39:28;;;;;;;10.95;7.15;;;17.50;84.20;;;;;;4999330;28;20026;-86
2023/06/08 01:41:59;;;;;;;10.77;7.78;;;17.50;84.20;;;;;;5000738;28;20118;-88
2023/06/08 01:44:28;;;;;;;9.70;7.30;;;17.50;84.20;;;;;;5004482;28;20069;-87
2023/06/08 01:46:59;;;;;;;9.32;7.40;;;17.50;84.20;;;;;;4999481;28;20026;-89
2023/06/08 01:49:28;;;;;;;10.82;6.63;;;17.50;84.10;;;;;;4999200;28;20081;-86
2023/06/08 01:51:54;;;;;;;9.52;6.30;;;17.50;84.10;;;;;;4999085;28;20030;-89
2023/06/08 01:54:23;;;;;;;8.77;6.55;;;17.50;84.10;;;;;;4998951;28;20037;-86
2023/06/08 01:56:49;;;;;;;9.98;7.30;;;17.60;84.20;;;;;;5008004;28;20026;-88
2023/06/08 01:59:15;;;;;;;9.32;6.45;;;17.60;84.20;;;;;;5018954;28;20515;-87
2023/06/08 02:01:40;;;;;;;9.00;6.40;;;17.50;84.10;;;;;;5008221;28;20034;-87
2023/06/08 02:04:06;;;;;;;11.07;7.03;;;17.50;84.10;;;;;;4998984;28;20021;-87
2023/06/08 02:06:31;;;;;;;8.95;6.78;;;17.50;84.10;;;;;;4995341;28;20050;-87
2023/06/08 02:08:57;;;;;;;8.65;6.18;;;17.50;84.10;;;;;;5005853;28;20026;-89
2023/06/08 02:11:23;;;;;;;9.07;6.75;;;17.50;84.10;;;;;;4997638;28;20489;-87
2023/06/08 02:13:49;;;;;;;8.30;6.20;;;17.50;84.10;;;;;;4995414;28;20018;-88
2023/06/08 02:16:18;;;;;;;10.18;7.00;;;17.50;84.10;;;;;;4995812;28;20519;-85
2023/06/08 02:18:44;;;;;;;11.18;7.28;;;17.50;84.10;;;;;;5004513;28;20097;-87
2023/06/08 02:21:11;;;;;;;10.98;6.90;;;17.50;84.00;;;;;;5009278;28;20054;-89
2023/06/08 02:23:37;;;;;;;9.48;7.07;;;17.60;84.00;;;;;;4994947;28;20039;-87
2023/06/08 02:26:05;;;;;;;10.15;6.90;;;17.60;84.00;;;;;;5001835;28;20041;-87
2023/06/08 02:28:30;;;;;;;8.93;6.50;;;17.60;83.90;;;;;;4997531;28;20033;-87
2023/06/08 02:30:56;;;;;;;9.23;6.00;;;17.60;83.80;;;;;;5004375;28;20033;-87
2023/06/08 02:33:21;;;;;;;10.30;7.10;;;17.70;83.80;;;;;;5012471;28;20046;-88
2023/06/08 02:35:48;;;;;;;10.13;7.57;;;17.60;83.70;;;;;;4986795;28;20045;-87
2023/06/08 02:38:14;;;;;;;10.85;7.40;;;17.70;83.70;;;;;;4995458;28;20029;-87
2023/06/08 02:40:40;;;;;;;11.13;7.65;;;17.70;83.70;;;;;;4995729;28;20058;-87
2023/06/08 02:43:06;;;;;;;12.90;7.50;;;17.70;83.60;;;;;;4995359;28;20038;-87
2023/06/08 02:45:32;;;;;;;10.02;7.00;;;17.70;83.60;;;;;;4999321;28;20037;-87
2023/06/08 02:47:57;;;;;;;10.63;7.88;;;17.70;83.70;;;;;;5012368;28;20022;-87
2023/06/08 02:50:23;;;;;;;10.40;7.22;;;17.60;83.70;;;;;;5014768;28;20483;-87
2023/06/08 02:52:49;;;;;;;10.85;8.40;;;17.60;83.70;;;;;;5010982;28;20030;-87
2023/06/08 02:55:14;;;;;;;11.43;8.82;;;17.60;83.90;;;;;;5000507;28;20026;-86
2023/06/08 02:57:40;;;;;;;10.32;7.60;;;17.60;83.90;;;;;;5009604;28;20022;-88
2023/06/08 03:00:12;;;;;;;10.70;8.25;;;17.60;84.00;;;;;;5004811;28;20102;-87
2023/06/08 03:02:38;;;;;;;11.68;8.55;;;17.60;84.10;;;;;;4994786;28;20022;-89
2023/06/08 03:05:04;;;;;;;11.18;8.02;;;17.60;84.10;;;;;;4996371;28;20027;-88
2023/06/08 03:07:33;;;;;;;11.63;8.65;;;17.60;84.10;;;;;;4994686;28;20412;-89
2023/06/08 03:09:59;;;;;;;11.00;8.38;;;17.50;84.00;;;;;;4995323;28;20112;-89
2023/06/08 03:12:24;;;;;;;10.73;8.10;;;17.50;84.10;;;;;;4994668;28;20081;-89
2023/06/08 03:14:50;;;;;;;11.90;8.23;;;17.60;84.20;;;;;;4988334;28;20030;-88
2023/06/08 03:17:17;;;;;;;12.75;8.90;;;17.50;84.10;;;;;;4994601;28;20029;-90
2023/06/08 03:19:43;;;;;;;11.20;8.30;;;17.50;84.10;;;;;;4996295;28;20018;-89
2023/06/08 03:22:09;;;;;;;10.68;7.68;;;17.50;84.00;;;;;;4995797;28;20030;-89
2023/06/08 03:24:35;;;;;;;10.15;7.88;;;17.50;84.10;;;;;;4994438;28;20033;-88
2023/06/08 03:27:02;;;;;;;10.13;7.32;;;17.50;84.00;;;;;;4994151;28;20120;-89
2023/06/08 03:29:28;;;;;;;10.43;7.00;;;17.60;84.10;;;;;;4994572;28;20374;-89
2023/06/08 03:31:54;;;;;;;9.65;6.95;;;17.60;84.10;;;;;;4994610;28;20062;-88
2023/06/08 03:34:20;;;;;;;9.48;6.82;;;17.50;84.00;;;;;;5010559;28;20615;-89
2023/06/08 03:36:46;;;;;;;10.23;7.15;;;17.50;84.00;;;;;;5010585;28;20022;-89
2023/06/08 03:39:12;;;;;;;9.02;6.68;;;17.50;84.00;;;;;;5004373;28;20113;-88
2023/06/08 03:41:37;;;;;;;9.50;6.80;;;17.50;84.00;;;;;;4997273;28;20038;-89
2023/06/08 03:44:03;;;;;;;9.82;7.10;;;17.50;84.00;;;;;;4996678;28;20566;-88
2023/06/08 03:46:28;;;;;;;10.07;7.30;;;17.50;83.90;;;;;;4996172;28;20598;-88
2023/06/08 03:48:54;;;;;;;10.00;6.88;;;17.50;83.90;;;;;;4994249;28;20481;-90
2023/06/08 03:51:21;;;;;;;10.48;6.88;;;17.50;83.90;;;;;;5010625;28;20117;-89
2023/06/08 03:53:47;;;;;;;11.38;7.32;;;17.50;83.90;;;;;;4993824;28;20025;-88
2023/06/08 03:56:13;;;;;;;10.52;7.60;;;17.50;83.90;;;;;;5005764;28;20117;-89
2023/06/08 03:58:41;;;;;;;11.38;6.97;;;17.50;83.90;;;;;;4995165;28;20058;-89
2023/06/08 04:01:10;;;;;;;11.07;7.63;;;17.60;83.90;;;;;;4993828;28;20109;-89
2023/06/08 04:03:36;;;;;;;9.23;6.82;;;17.60;83.90;;;;;;5015350;28;20496;-90
2023/06/08 04:06:08;;;;;;;10.23;7.20;;;17.60;83.80;;;;;;5010273;28;20129;-88
2023/06/08 04:08:40;;;;;;;9.63;7.00;;;17.60;83.70;;;;;;4977822;28;20033;-89
2023/06/08 04:11:07;;;;;;;10.38;7.30;;;17.60;83.60;;;;;;4997212;28;20026;-87
2023/06/08 04:13:34;;;;;;;10.52;7.75;;;17.70;83.50;;;;;;4995396;28;20484;-86
2023/06/08 04:16:00;;;;;;;11.10;7.32;;;17.70;83.50;;;;;;4993880;28;20162;-87
2023/06/08 04:18:26;;;;;;;11.48;7.93;;;17.70;83.50;;;;;;4994957;28;20029;-88
2023/06/08 04:20:52;;;;;;;13.18;8.30;;;17.70;83.50;;;;;;4993805;28;20022;-87
2023/06/08 04:23:18;;;;;;;10.55;7.53;;;17.70;83.50;;;;;;4993779;28;20026;-87
2023/06/08 04:25:43;;;;;;;11.43;8.07;;;17.70;83.50;;;;;;4993241;28;20052;-87
2023/06/08 04:28:09;;;;;;;11.55;8.57;;;17.60;83.50;;;;;;4995607;28;20034;-90
2023/06/08 04:30:35;;;;;;;12.15;9.27;;;17.60;83.50;;;;;;5013376;28;20030;-87
2023/06/08 04:33:00;;;;;;;11.27;8.85;;;17.60;83.70;;;;;;5005120;28;20503;-87
2023/06/08 04:35:26;;;;;;;12.98;9.40;;;17.60;83.70;;;;;;4978630;28;20547;-87
2023/06/08 04:37:52;;;;;;;12.63;9.52;;;17.60;83.80;;;;;;4993338;28;20019;-87
2023/06/08 04:40:19;;;;;;;10.85;8.93;;;17.60;83.80;;;;;;5013767;28;20017;-87
2023/06/08 04:42:45;;;;;;;12.70;9.48;;;17.50;83.80;;;;;;5009715;28;20037;-87
2023/06/08 04:45:11;;;;;;;13.85;9.70;;;17.50;83.80;;;;;;4993640;28;20118;-87
2023/06/08 04:47:37;;;;;;;12.75;9.77;;;17.50;83.90;;;;;;5003986;28;20026;-87
2023/06/08 04:50:07;;;;;;;11.25;8.63;;;17.60;83.90;;;;;;4993272;28;20056;-88
2023/06/08 04:52:37;;;;;;;13.30;9.48;;;17.60;83.90;;;;;;4993169;28;20405;-88
2023/06/08 04:55:03;;;;;;;11.32;9.35;;;17.50;83.80;;;;;;4991645;28;20068;-87
2023/06/08 04:57:29;;;;;;;12.13;9.20;;;17.50;83.80;;;;;;4993134;28;20034;-86
2023/06/08 05:21:09;;;;;;;12.52;9.55;;;17.50;83.80;;;;;;5133731;22;20065;-86
2023/06/08 05:52:05;;;;;;;12.45;9.45;;;17.70;83.40;;;;;;4994710;28;20055;-89
2023/06/08 05:55:07;;;;;;;11.73;9.27;;;17.70;83.30;;;;;;4974837;28;20070;-87
2023/06/08 05:57:33;;;;;;;13.18;10.40;;;17.70;83.30;;;;;;5031592;23;20047;-86
2023/06/08 05:59:58;;;;;;;13.18;10.07;;;17.70;83.30;;;;;;5028761;28;20030;-85
2023/06/08 06:02:24;;;;;;;14.63;10.43;;;17.70;83.30;;;;;;5028459;28;20415;-85
2023/06/08 06:04:49;;;;;;;13.07;10.25;;;17.60;83.20;;;;;;4997422;28;20049;-87
2023/06/08 06:07:15;;;;;;;12.27;8.80;;;17.60;83.20;;;;;;5013832;28;20062;-85
2023/06/08 06:09:40;;;;;;;13.85;9.73;;;17.60;83.30;;;;;;4976116;28;20552;-85
2023/06/08 06:12:09;;;;;;;12.23;9.20;;;17.60;83.40;;;;;;4977258;28;20474;-85
2023/06/08 06:14:39;;;;;;;14.48;10.10;;;17.60;83.40;;;;;;4977456;28;20023;-85
2023/06/08 06:17:06;;;;;;;11.82;9.38;;;17.60;83.50;;;;;;4974393;28;20397;-85
2023/06/08 06:19:36;;;;;;;11.32;8.90;;;17.60;83.50;;;;;;4975534;28;20113;-85
2023/06/08 06:22:05;;;;;;;13.38;9.70;;;17.60;84.10;;;;;;4975573;28;20503;-85
2023/06/08 06:24:31;;;;;;;12.07;9.05;;;17.50;83.50;;;;;;4975391;28;20031;-85
2023/06/08 06:26:56;;;;;;;11.90;8.73;;;17.60;83.60;;;;;;4976091;28;20022;-86
2023/06/08 06:29:23;;;;;;;12.27;9.55;;;17.50;83.50;;;;;;4974970;28;20034;-86
2023/06/08 06:31:48;;;;;;;11.98;9.07;;;17.50;83.60;;;;;;4985085;28;20313;-87
2023/06/08 06:34:14;;;;;;;12.68;9.10;;;17.50;83.60;;;;;;4987328;28;20022;-88
2023/06/08 06:36:39;;;;;;;11.75;9.02;;;17.50;83.60;;;;;;4987373;28;20037;-86
2023/06/08 06:39:05;;;;;;;12.88;10.20;;;17.50;83.50;;;;;;4987237;28;20038;-86
2023/06/08 06:41:30;;;;;;;13.98;9.50;;;17.50;83.60;;;;;;4987763;28;20027;-86
2023/06/08 06:43:56;;;;;;;13.68;9.68;;;17.60;83.60;;;;;;4987258;28;20050;-87
2023/06/08 06:46:22;;;;;;;11.73;9.10;;;17.50;83.60;;;;;;4986423;28;20039;-87
2023/06/08 06:48:48;;;;;;;13.07;9.93;;;17.50;83.60;;;;;;4984992;28;20110;-86
2023/06/08 06:51:13;;;;;;;11.95;9.45;;;17.50;83.60;;;;;;4993008;28;20019;-88
2023/06/08 06:53:39;;;;;;;13.15;9.68;;;17.50;83.60;;;;;;4985265;28;20031;-88
2023/06/08 06:56:04;;;;;;;11.85;9.25;;;17.50;83.70;;;;;;4981998;28;20034;-89
2023/06/08 06:58:30;;;;;;;12.95;9.68;;;17.50;83.60;;;;;;4979883;28;20033;-86
2023/06/08 07:00:57;;;;;;;13.45;10.75;;;17.50;83.50;;;;;;4990038;28;20398;-84
2023/06/08 07:03:26;;;;;;;12.13;9.30;;;17.50;83.50;;;;;;4981828;28;20055;-86
2023/06/08 07:05:57;;;;;;;12.25;9.25;;;17.60;83.50;;;;;;4996662;28;20809;-86
2023/06/08 07:08:24;;;;;;;13.07;9.65;;;17.60;83.50;;;;;;4979551;28;20035;-87
2023/06/08 07:10:50;;;;;;;18.83;10.55;;;17.60;83.50;;;;;;4981650;28;20027;-86
2023/06/08 07:13:15;;;;;;;17.20;9.57;;;17.60;83.30;;;;;;4979524;28;20027;-86
2023/06/08 07:15:41;;;;;;;17.42;10.35;;;17.60;83.10;;;;;;4978646;28;20031;-86
2023/06/08 07:18:07;;;;;;;18.23;10.05;;;17.60;82.80;;;;;;4980150;28;20393;-86
2023/06/08 07:20:32;;;;;;;16.30;10.77;;;17.60;82.70;;;;;;4979743;28;20038;-87
2023/06/08 07:22:58;;;;;;;19.25;10.15;;;17.70;82.80;;;;;;4983652;28;20034;-88
2023/06/08 07:25:23;;;;;;;16.25;10.02;;;17.70;82.70;;;;;;4983468;28;20031;-88
2023/06/08 07:27:49;;;;;;;18.05;10.27;;;17.70;82.60;;;;;;4966030;28;20034;-87
2023/06/08 07:30:14;;;;;;;17.17;10.20;;;17.70;82.50;;;;;;4977535;28;20444;-86
2023/06/08 07:32:40;;;;;;;16.52;11.25;;;17.80;82.50;;;;;;4981182;28;20038;-86
2023/06/08 07:35:06;;;;;;;16.92;10.52;;;17.70;82.50;;;;;;4982989;28;20075;-87
2023/06/08 07:37:33;;;;;;;16.25;11.00;;;17.70;82.50;;;;;;4980628;28;20085;-87
2023/06/08 07:39:58;;;;;;;15.88;11.27;;;17.70;82.60;;;;;;4981524;28;20027;-87
2023/06/08 07:42:24;;;;;;;15.63;11.27;;;17.70;82.60;;;;;;5012639;28;20452;-87
2023/06/08 07:44:50;;;;;;;17.55;12.18;;;17.70;82.70;;;;;;4979920;28;20027;-87
2023/06/08 07:47:17;;;;;;;15.77;11.30;;;17.70;82.80;;;;;;4980621;28;20034;-88
2023/06/08 07:49:43;;;;;;;16.02;11.48;;;17.70;82.80;;;;;;4980833;28;20062;-86
2023/06/08 07:52:08;;;;;;;14.75;10.18;;;17.70;82.80;;;;;;4979076;28;20065;-86
2023/06/08 07:54:34;;;;;;;13.55;9.90;;;17.70;82.70;;;;;;5011567;28;20453;-86
2023/06/08 07:57:00;;;;;;;15.70;11.80;;;17.70;82.70;;;;;;4977873;28;20037;-86
2023/06/08 07:59:26;;;;;;;15.20;10.13;;;17.70;82.80;;;;;;4979255;28;20023;-86
2023/06/08 08:01:51;;;;;;;17.88;11.20;;;17.70;82.70;;;;;;4977923;28;20122;-86
2023/06/08 08:04:17;;;;;;;15.18;10.88;;;17.70;82.70;;;;;;4979607;28;20027;-86
2023/06/08 08:06:42;;;;;;;16.85;10.48;;;17.70;82.70;;;;;;4977493;28;20055;-84
2023/06/08 08:09:08;;;;;;;16.48;10.77;;;17.70;82.70;;;;;;4973342;28;20593;-84
2023/06/08 08:11:34;;;;;;;15.75;10.38;;;17.70;82.70;;;;;;4976426;28;20059;-86
2023/06/08 08:13:59;;;;;;;15.10;11.25;;;17.70;82.80;;;;;;4977445;28;20034;-86
2023/06/08 08:16:24;;;;;;;17.13;11.95;;;17.70;82.80;;;;;;4976745;28;20038;-85
2023/06/08 08:18:50;;;;;;;14.30;11.35;;;17.70;82.80;;;;;;4977290;28;20062;-87
2023/06/08 08:21:15;;;;;;;16.05;11.45;;;17.70;82.70;;;;;;4975220;28;20034;-86
2023/06/08 08:23:41;;;;;;;17.25;11.15;;;17.70;82.70;;;;;;4975568;28;20172;-86
2023/06/08 08:26:06;;;;;;;15.20;11.77;;;17.80;82.60;;;;;;4974674;28;20022;-86
2023/06/08 08:28:33;;;;;;;15.38;11.80;;;17.80;82.50;;;;;;4976432;28;20037;-87
2023/06/08 08:30:59;;;;;;;15.27;11.57;;;17.80;82.60;;;;;;4977016;28;20023;-88
2023/06/08 08:33:26;;;;;;;17.00;11.23;;;17.80;82.40;;;;;;4976667;28;20106;-86
2023/06/08 08:35:52;;;;;;;18.10;11.80;;;17.80;82.30;;;;;;4975906;28;20042;-86
2023/06/08 08:38:17;;;;;;;16.52;10.55;;;17.90;82.40;;;;;;4976490;28;20030;-86
2023/06/08 08:40:43;;;;;;;16.25;11.25;;;17.90;82.30;;;;;;4974754;28;20019;-86
2023/06/08 08:43:39;;;;;;;14.23;10.65;;;17.90;82.30;;;;;;4975833;28;20114;-87
2023/06/08 08:46:07;;;;;;;17.52;12.88;;;17.90;82.20;;;;;;4974398;28;20035;-86
2023/06/08 08:48:35;;;;;;;18.30;12.38;;;17.90;82.30;;;;;;4961052;28;20034;-86
2023/06/08 08:51:00;;;;;;;16.02;11.02;;;17.90;82.30;;;;;;4955091;29;20023;-86
2023/06/08 08:53:30;;;;;;;15.98;11.40;;;17.90;82.10;;;;;;4961895;28;20023;-87
2023/06/08 08:55:59;;;;;;;14.95;11.68;;;17.90;82.10;;;;;;4973737;28;20084;-86
2023/06/08 08:58:26;;;;;;;16.23;12.77;;;18.00;82.10;;;;;;4973640;28;20049;-87
2023/06/08 09:00:52;;;;;;;15.95;12.10;;;18.00;82.00;;;;;;4975046;28;20520;-87
2023/06/08 09:03:17;;;;;;;16.42;11.68;;;18.00;81.90;;;;;;4975495;28;20027;-87
2023/06/08 09:05:44;;;;;;;14.20;11.35;;;18.00;81.80;;;;;;4972802;28;20050;-86
2023/06/08 09:08:11;;;;;;;16.50;11.77;;;18.00;81.70;;;;;;4974789;28;20389;-87
2023/06/08 09:10:36;;;;;;;16.30;11.27;;;18.00;81.70;;;;;;4973438;28;20030;-86
2023/06/08 09:13:02;;;;;;;19.23;13.18;;;18.10;81.70;;;;;;4974764;28;20026;-87
2023/06/08 09:15:37;;;;;;;16.08;12.50;;;18.00;81.80;;;;;;4975622;28;20031;-87
2023/06/08 09:18:16;;;;;;;15.35;11.88;;;18.20;82.00;;;;;;4974273;28;20054;-87
2023/06/08 09:20:41;;;;;;;15.95;12.05;;;18.00;82.00;;;;;;4978787;28;20050;-87
2023/06/08 09:23:20;;;;;;;18.17;13.57;;;18.00;82.10;;;;;;4978336;28;20510;-87
2023/06/08 09:25:47;;;;;;;20.88;13.45;;;18.00;82.20;;;;;;4960741;28;20073;-86
2023/06/08 09:28:32;;;;;;;16.50;11.68;;;17.90;82.20;;;;;;4976348;28;20165;-87
2023/06/08 09:30:57;;;;;;;16.38;11.77;;;17.90;82.30;;;;;;4977492;28;20023;-87
2023/06/08 09:33:25;;;;;;;18.05;13.45;;;17.90;82.40;;;;;;4977810;28;20046;-87
2023/06/08 09:36:04;;;;;;;16.35;11.60;;;17.90;82.40;;;;;;4977227;28;20019;-86
2023/06/08 09:38:32;;;;;;;17.30;12.43;;;17.90;82.40;;;;;;4976174;28;20552;-87
2023/06/08 09:41:21;;;;;;;15.68;11.88;;;17.90;82.30;;;;;;4975968;28;20026;-87
2023/06/08 09:43:48;;;;;;;16.38;11.70;;;17.90;82.20;;;;;;4977361;28;20045;-86
2023/06/08 09:46:35;;;;;;;15.57;11.73;;;18.00;82.20;;;;;;4975272;28;20027;-85
2023/06/08 09:49:04;;;;;;;16.75;12.32;;;18.00;82.60;;;;;;4956506;28;20057;-87
2023/06/08 09:51:33;;;;;;;17.33;11.57;;;18.00;82.00;;;;;;4956498;28;20086;-86
2023/06/08 09:53:59;;;;;;;15.70;12.07;;;18.00;82.00;;;;;;4988920;28;20024;-87
2023/06/08 09:56:26;;;;;;;18.10;12.60;;;18.10;82.00;;;;;;4963965;28;20038;-86
2023/06/08 09:58:56;;;;;;;15.95;11.80;;;18.10;81.90;;;;;;4976913;28;20490;-87
2023/06/08 10:01:45;;;;;;;15.20;11.43;;;18.10;81.70;;;;;;4975712;28;20031;-87
2023/06/08 10:04:22;;;;;;;14.53;11.00;;;18.20;81.70;;;;;;4975570;28;20489;-88
2023/06/08 10:06:54;;;;;;;15.65;11.48;;;18.20;81.50;;;;;;4983958;28;20630;-87
2023/06/08 10:09:23;;;;;;;16.67;11.77;;;18.30;81.40;;;;;;4980197;28;20019;-88
2023/06/08 10:11:50;;;;;;;14.80;11.35;;;18.30;81.30;;;;;;4982464;28;20058;-88
2023/06/08 10:14:17;;;;;;;14.55;10.88;;;18.30;81.20;;;;;;4983393;28;20038;-87
2023/06/08 10:16:42;;;;;;;16.50;12.05;;;18.30;81.20;;;;;;4982528;28;20034;-87
2023/06/08 10:19:10;;;;;;;15.68;11.85;;;18.40;81.20;;;;;;5013278;28;20139;-87
2023/06/08 10:21:36;;;;;;;16.45;11.90;;;18.40;81.10;;;;;;4981918;28;20031;-87
2023/06/08 10:24:03;;;;;;;15.38;11.95;;;18.40;81.10;;;;;;5014101;28;20500;-87
2023/06/08 10:26:29;;;;;;;15.73;11.75;;;18.40;81.10;;;;;;4980785;28;20043;-87
2023/06/08 10:29:08;;;;;;;15.15;11.73;;;18.40;81.00;;;;;;4980720;28;20033;-87
2023/06/08 10:31:37;;;;;;;15.50;11.05;;;18.50;81.50;;;;;;4981672;28;20148;-87
2023/06/08 10:34:13;;;;;;;15.02;11.57;;;18.50;80.80;;;;;;4981533;28;20027;-87
2023/06/08 10:36:41;;;;;;;16.27;11.80;;;18.50;80.60;;;;;;4981133;28;20029;-87
2023/06/08 10:39:12;;;;;;;15.32;11.02;;;18.50;80.60;;;;;;4979317;28;20032;-87
2023/06/08 10:41:41;;;;;;;;;;;18.60;80.60;;;;;;4981269;28;20054;-87
2023/06/08 10:44:22;;;;;;;13.93;10.90;;;18.60;80.50;;;;;;4995529;28;20300;-87
2023/06/08 10:46:59;;;;;;;15.50;11.50;;;18.60;80.50;;;;;;4978305;28;20035;-87
2023/06/08 10:49:32;;;;;;;16.05;11.75;;;18.60;80.40;;;;;;5011058;28;20027;-87
2023/06/08 10:52:02;;;;;;;14.45;11.13;;;18.60;80.40;;;;;;4978539;28;20027;-88
2023/06/08 10:54:28;;;;;;;15.48;11.55;;;18.60;80.30;;;;;;4979936;28;20027;-88
2023/06/08 10:56:58;;;;;;;15.63;11.52;;;18.60;80.30;;;;;;4979143;28;20105;-88
2023/06/08 10:59:36;;;;;;;14.70;11.68;;;18.60;80.30;;;;;;4983663;28;20019;-88
2023/06/08 11:02:04;;;;;;;16.35;12.18;;;18.60;80.40;;;;;;4982762;28;20038;-88
2023/06/08 11:04:30;;;;;;;13.65;10.85;;;18.60;80.40;;;;;;4981207;28;20049;-87
2023/06/08 11:07:14;;;;;;;16.55;12.52;;;18.60;80.50;;;;;;4980133;28;20404;-87
2023/06/08 11:09:40;;;;;;;15.35;11.40;;;18.60;80.60;;;;;;4982216;28;20489;-87
2023/06/08 11:12:06;;;;;;;15.05;11.15;;;18.50;80.60;;;;;;4980729;28;20031;-87
2023/06/08 11:14:31;;;;;;;16.42;11.77;;;18.50;80.60;;;;;;4980704;28;20019;-87
2023/06/08 11:16:59;;;;;;;14.75;10.95;;;18.50;80.80;;;;;;4980868;28;20035;-87
2023/06/08 11:19:28;;;;;;;14.95;11.35;;;18.60;80.90;;;;;;4979342;28;20054;-87
2023/06/08 11:21:53;;;;;;;15.45;11.70;;;18.50;80.90;;;;;;4980954;28;20050;-87
2023/06/08 11:24:24;;;;;;;15.30;11.57;;;18.50;80.90;;;;;;5012235;28;20397;-87
2023/06/08 11:26:49;;;;;;;15.38;11.77;;;18.50;81.00;;;;;;4980060;28;20026;-87
2023/06/08 11:29:15;;;;;;;15.55;11.95;;;18.50;81.00;;;;;;4980371;28;20062;-86
2023/06/08 11:31:41;;;;;;;14.88;11.52;;;18.50;81.00;;;;;;4980014;28;20027;-87
2023/06/08 11:34:12;;;;;;;14.98;11.00;;;18.60;81.00;;;;;;4979331;28;20505;-87
2023/06/08 11:36:42;;;;;;;15.27;11.45;;;18.50;81.00;;;;;;4977020;28;20034;-87
2023/06/08 11:39:08;;;;;;;15.13;11.57;;;18.60;81.00;;;;;;4978440;28;20027;-87
2023/06/08 11:41:33;;;;;;;15.43;11.75;;;18.50;81.00;;;;;;4977292;28;20027;-88
2023/06/08 11:43:59;;;;;;;15.38;11.52;;;18.50;81.00;;;;;;4978606;28;20094;-87
2023/06/08 11:46:26;;;;;;;15.48;11.55;;;18.50;81.00;;;;;;4978253;28;20456;-87
2023/06/08 11:48:52;;;;;;;14.65;11.30;;;18.50;81.00;;;;;;4978556;28;20037;-87
2023/06/08 11:51:18;;;;;;;16.73;11.57;;;18.60;81.00;;;;;;4976506;28;20031;-87
2023/06/08 11:53:45;;;;;;;15.50;11.05;;;18.50;81.00;;;;;;5008699;28;20022;-86
2023/06/08 11:56:11;;;;;;;13.93;11.15;;;18.60;81.00;;;;;;4977720;28;20505;-86
2023/06/08 11:58:39;;;;;;;16.90;12.00;;;18.50;81.00;;;;;;4977697;28;20073;-87
2023/06/08 12:01:11;;;;;;;15.93;12.18;;;18.60;81.10;;;;;;4977628;28;20113;-87
2023/06/08 12:03:45;;;;;;;15.68;11.73;;;18.60;81.10;;;;;;4977574;28;20030;-87
2023/06/08 12:06:11;;;;;;;15.23;11.55;;;18.60;81.00;;;;;;4976932;28;20026;-84
2023/06/08 12:08:36;;;;;;;15.32;11.48;;;18.60;80.90;;;;;;4975271;28;20129;-87
2023/06/08 12:11:10;;;;;;;14.98;11.52;;;18.70;80.80;;;;;;4975443;28;20485;-87
2023/06/08 12:13:38;;;;;;;14.25;10.90;;;18.70;80.70;;;;;;4974604;28;20030;-88
2023/06/08 12:16:06;;;;;;;15.43;11.68;;;18.70;80.70;;;;;;4974524;28;20477;-87
2023/06/08 12:18:38;;;;;;;14.40;10.65;;;18.70;80.70;;;;;;4976252;28;20152;-87
2023/06/08 12:21:08;;;;;;;15.02;11.75;;;18.70;80.60;;;;;;4976429;28;20019;-87
2023/06/08 12:23:33;;;;;;;14.43;10.95;;;18.70;80.60;;;;;;4974396;28;20037;-86
2023/06/08 12:26:00;;;;;;;15.90;12.02;;;18.70;80.60;;;;;;4973883;28;20404;-86
2023/06/08 12:28:25;;;;;;;16.20;12.00;;;18.70;80.60;;;;;;4974156;28;20081;-87
2023/06/08 12:30:51;;;;;;;15.35;11.98;;;18.70;80.50;;;;;;4975728;28;20027;-87
2023/06/08 12:33:18;;;;;;;15.35;11.52;;;18.60;80.60;;;;;;4975772;28;20478;-87
2023/06/08 12:35:54;;;;;;;15.15;11.10;;;18.60;80.70;;;;;;4973760;28;20023;-83
2023/06/08 12:38:21;;;;;;;14.93;11.63;;;18.60;80.70;;;;;;4975983;28;20019;-87
2023/06/08 12:40:51;;;;;;;16.40;12.13;;;18.60;80.90;;;;;;4974781;28;20101;-87
2023/06/08 12:43:18;;;;;;;14.70;11.32;;;18.50;80.90;;;;;;4974999;28;20048;-87
2023/06/08 12:45:44;;;;;;;13.98;11.00;;;18.50;80.90;;;;;;4973148;28;20042;-88
2023/06/08 12:48:09;;;;;;;15.35;11.95;;;18.50;81.10;;;;;;4964045;28;20027;-87
2023/06/08 12:50:35;;;;;;;21.83;11.77;;;18.50;81.20;;;;;;4986021;28;20078;-88
2023/06/08 12:53:01;;;;;;;26.73;13.60;;;18.50;81.80;;;;;;4955326;28;20050;-86
2023/06/08 12:55:26;;;;;;;29.83;13.68;;;18.50;81.60;;;;;;4954493;29;20051;-83
2023/06/08 12:57:52;;;;;;;28.30;12.50;;;18.50;81.90;;;;;;4969197;28;20092;-85
2023/06/08 13:00:21;;;;;;;29.55;13.23;;;18.50;81.90;;;;;;4969651;28;20110;-85
2023/06/08 13:02:47;;;;;;;29.40;13.65;;;18.50;81.80;;;;;;4969851;28;20031;-86
2023/06/08 13:05:13;;;;;;;32.63;14.18;;;18.50;81.80;;;;;;4970781;28;20041;-86
2023/06/08 13:07:38;;;;;;;29.88;13.27;;;18.50;81.80;;;;;;4969173;28;20122;-85
2023/06/08 13:10:05;;;;;;;35.08;14.15;;;18.50;81.80;;;;;;4966159;28;20066;-86
2023/06/08 13:12:30;;;;;;;31.85;13.63;;;18.50;81.90;;;;;;4951654;28;20035;-85
2023/06/08 13:14:56;;;;;;;32.47;12.88;;;18.50;81.80;;;;;;4958894;28;20105;-86
2023/06/08 13:17:21;;;;;;;29.95;13.40;;;18.50;81.90;;;;;;4996191;23;20576;-87
2023/06/08 13:23:56;;;;;;;;;;;;;;;;;;;;;
2023/06/08 13:26:22;;;;;;;25.63;13.98;;;18.40;81.90;;;;;;4945937;28;20056;-83
2023/06/08 13:28:47;;;;;;;29.63;13.65;;;18.40;81.90;;;;;;4985526;28;20281;-84
2023/06/08 13:31:12;;;;;;;23.70;12.40;;;18.40;82.00;;;;;;4986314;28;20490;-84
2023/06/08 13:33:38;;;;;;;23.15;12.60;;;18.40;81.90;;;;;;4978542;28;20042;-85